Time;durP1;ratioP1;P1;durP2;ratioP2;P2;SDS_P1;SDS_P2;PMS_P1;PMS_P2;Temp;Humidity;BMP_temperature;BMP_pressure;BME280_temperature;BME280_humidity;BME280_pressure;Samples;Min_cycle;Max_cycle;Signal;HPM_P1;HPM_P2
2024/01/31 00:00:09;;;;;;;5.23;3.50;;;9.10;99.90;;;;;;5030175;28;20463;-69
2024/01/31 00:02:35;;;;;;;5.87;4.07;;;9.10;99.90;;;;;;5032762;28;20491;-70
2024/01/31 00:05:01;;;;;;;6.33;3.90;;;9.10;99.90;;;;;;5031544;28;20424;-69
2024/01/31 00:07:27;;;;;;;5.77;4.00;;;9.00;99.90;;;;;;5029434;28;20815;-68
2024/01/31 00:09:52;;;;;;;9.97;4.40;;;9.00;99.90;;;;;;5061746;28;20194;-67
2024/01/31 00:12:18;;;;;;;6.73;5.20;;;9.00;99.90;;;;;;5029261;28;20246;-68
2024/01/31 00:14:44;;;;;;;6.47;4.33;;;9.00;99.90;;;;;;5031238;28;20182;-69
2024/01/31 00:17:10;;;;;;;8.73;4.37;;;9.00;99.90;;;;;;5030592;28;20183;-70
2024/01/31 00:19:36;;;;;;;6.53;3.60;;;9.00;99.90;;;;;;5030805;28;20437;-66
2024/01/31 00:22:10;;;;;;;6.80;4.50;;;9.00;99.90;;;;;;5029128;28;20227;-69
2024/01/31 00:24:36;;;;;;;6.97;4.20;;;9.00;99.90;;;;;;5031775;28;20185;-69
2024/01/31 00:27:02;;;;;;;7.70;4.20;;;9.00;99.90;;;;;;5029829;28;20473;-69
2024/01/31 00:29:28;;;;;;;6.97;3.83;;;8.90;99.90;;;;;;5031808;28;21335;-68
2024/01/31 00:31:54;;;;;;;8.23;4.00;;;8.90;99.90;;;;;;5030466;28;20229;-68
2024/01/31 00:34:19;;;;;;;11.07;4.90;;;8.90;99.90;;;;;;5031366;28;20336;-68
2024/01/31 00:36:45;;;;;;;10.70;4.10;;;8.90;99.90;;;;;;5030775;28;20197;-68
2024/01/31 00:39:11;;;;;;;7.80;4.30;;;8.90;99.90;;;;;;5030700;28;20182;-67
2024/01/31 00:41:36;;;;;;;6.60;4.30;;;8.90;99.90;;;;;;5030571;28;20412;-66
2024/01/31 00:44:02;;;;;;;7.20;3.80;;;8.90;99.90;;;;;;5029512;28;20197;-68
2024/01/31 00:46:28;;;;;;;10.10;5.53;;;8.90;99.90;;;;;;5030755;28;20293;-70
2024/01/31 00:48:53;;;;;;;9.93;5.60;;;8.90;99.90;;;;;;5031215;28;20229;-67
2024/01/31 00:51:19;;;;;;;7.03;4.60;;;8.90;99.90;;;;;;5028989;28;20214;-69
2024/01/31 00:53:45;;;;;;;11.37;5.83;;;8.90;99.90;;;;;;5031686;28;20190;-69
2024/01/31 00:56:11;;;;;;;10.50;6.50;;;8.90;99.90;;;;;;5029401;28;20429;-67
2024/01/31 00:58:36;;;;;;;10.60;6.47;;;8.90;99.90;;;;;;5031678;28;20193;-65
2024/01/31 01:01:02;;;;;;;8.73;5.97;;;8.90;99.90;;;;;;5029666;28;20273;-70
2024/01/31 01:03:28;;;;;;;12.03;8.00;;;8.90;99.90;;;;;;5031374;28;20189;-66
2024/01/31 01:05:53;;;;;;;10.40;7.10;;;8.90;99.90;;;;;;5030337;28;20190;-68
2024/01/31 01:08:19;;;;;;;13.33;8.33;;;8.80;99.90;;;;;;5032355;28;20655;-70
2024/01/31 01:10:45;;;;;;;9.20;6.70;;;8.80;99.90;;;;;;5030261;28;20193;-67
2024/01/31 01:13:10;;;;;;;12.53;8.70;;;8.80;99.90;;;;;;5033881;28;20244;-67
2024/01/31 01:15:36;;;;;;;11.43;7.70;;;8.80;99.90;;;;;;5034693;28;20193;-68
2024/01/31 01:18:02;;;;;;;10.57;7.47;;;8.80;99.90;;;;;;5034578;28;20198;-68
2024/01/31 01:20:27;;;;;;;14.57;7.60;;;8.80;99.90;;;;;;5034635;28;20713;-66
2024/01/31 01:22:55;;;;;;;12.10;7.40;;;8.80;99.90;;;;;;5032657;28;20189;-70
2024/01/31 01:25:21;;;;;;;11.27;7.70;;;8.80;99.90;;;;;;5032949;28;20194;-70
2024/01/31 01:27:50;;;;;;;13.23;8.33;;;8.80;99.90;;;;;;5035358;28;20433;-67
2024/01/31 01:30:20;;;;;;;13.47;8.13;;;8.80;99.90;;;;;;5033517;28;20185;-67
2024/01/31 01:32:46;;;;;;;11.23;7.43;;;8.80;99.90;;;;;;5032469;28;20908;-70
2024/01/31 01:35:13;;;;;;;11.87;6.80;;;8.80;99.90;;;;;;5035386;28;21303;-66
2024/01/31 01:37:39;;;;;;;14.17;8.57;;;8.80;99.90;;;;;;5036476;28;20217;-66
2024/01/31 01:40:07;;;;;;;12.03;8.67;;;8.70;99.90;;;;;;5034227;28;20456;-70
2024/01/31 01:42:36;;;;;;;16.40;8.63;;;8.80;99.90;;;;;;5034745;28;20433;-67
2024/01/31 01:45:02;;;;;;;13.40;8.73;;;8.70;99.90;;;;;;5034927;28;20928;-70
2024/01/31 01:47:27;;;;;;;12.77;8.90;;;8.80;99.90;;;;;;5036006;28;20444;-68
2024/01/31 01:49:53;;;;;;;14.90;8.50;;;8.80;99.90;;;;;;5035585;28;20265;-67
2024/01/31 01:52:19;;;;;;;15.20;8.80;;;8.80;99.90;;;;;;5036716;28;20210;-67
2024/01/31 01:54:45;;;;;;;13.77;8.90;;;8.80;99.90;;;;;;5035060;28;20456;-67
2024/01/31 01:57:12;;;;;;;13.27;8.07;;;8.80;99.90;;;;;;5035484;28;20193;-68
2024/01/31 01:59:38;;;;;;;16.90;9.13;;;8.80;99.90;;;;;;5036115;28;20428;-69
2024/01/31 02:02:04;;;;;;;17.30;7.83;;;8.80;99.90;;;;;;5033141;28;20440;-69
2024/01/31 02:04:30;;;;;;;10.17;7.20;;;8.70;99.90;;;;;;5019326;28;21078;-70
2024/01/31 02:06:56;;;;;;;14.87;8.30;;;8.70;99.90;;;;;;5033258;28;20435;-67
2024/01/31 02:09:22;;;;;;;13.00;8.77;;;8.70;99.90;;;;;;5035830;28;20187;-69
2024/01/31 02:11:47;;;;;;;9.63;7.37;;;8.70;99.90;;;;;;5035270;28;20597;-67
2024/01/31 02:14:13;;;;;;;15.60;8.30;;;8.70;99.90;;;;;;5035264;28;20547;-69
2024/01/31 02:16:39;;;;;;;13.43;7.60;;;8.70;99.90;;;;;;5034832;28;20202;-70
2024/01/31 02:19:04;;;;;;;10.30;7.47;;;8.70;99.90;;;;;;5034359;28;20213;-66
2024/01/31 02:21:32;;;;;;;13.40;8.77;;;8.70;99.90;;;;;;5034459;28;20182;-67
2024/01/31 02:23:58;;;;;;;12.57;8.73;;;8.60;99.90;;;;;;5033870;28;20181;-68
2024/01/31 02:26:24;;;;;;;14.60;9.27;;;8.60;99.90;;;;;;5034869;28;21000;-67
2024/01/31 02:28:49;;;;;;;15.33;9.83;;;8.70;99.90;;;;;;5035076;28;20644;-69
2024/01/31 02:31:15;;;;;;;11.23;9.13;;;8.70;99.90;;;;;;5034305;28;20743;-69
2024/01/31 02:33:41;;;;;;;15.43;10.60;;;8.70;99.90;;;;;;5036060;28;20544;-68
2024/01/31 02:36:06;;;;;;;16.10;10.30;;;8.70;99.90;;;;;;5032837;28;20189;-70
2024/01/31 02:38:32;;;;;;;17.07;9.97;;;8.60;99.90;;;;;;5035402;28;20736;-69
2024/01/31 02:40:58;;;;;;;13.07;9.37;;;8.60;99.90;;;;;;5034701;28;20217;-67
2024/01/31 02:43:23;;;;;;;12.93;9.00;;;8.60;99.90;;;;;;5032667;28;20860;-69
2024/01/31 02:45:49;;;;;;;13.60;9.67;;;8.60;99.90;;;;;;5031764;28;20292;-68
2024/01/31 02:48:15;;;;;;;13.00;8.43;;;8.60;99.90;;;;;;5031390;28;20671;-69
2024/01/31 02:50:40;;;;;;;10.77;8.10;;;8.60;99.90;;;;;;5031644;28;20194;-68
2024/01/31 02:53:06;;;;;;;13.87;9.20;;;8.60;99.90;;;;;;5032219;28;20247;-69
2024/01/31 02:55:32;;;;;;;14.53;8.97;;;8.60;99.90;;;;;;5033277;28;20201;-68
2024/01/31 02:57:57;;;;;;;13.87;8.47;;;8.60;99.90;;;;;;5032243;28;20186;-66
2024/01/31 03:00:23;;;;;;;15.43;8.30;;;8.60;99.90;;;;;;5032922;28;20190;-69
2024/01/31 03:02:49;;;;;;;15.50;9.40;;;8.60;99.90;;;;;;5032082;28;20191;-70
2024/01/31 03:05:14;;;;;;;12.20;7.90;;;8.60;99.90;;;;;;5031949;28;21179;-70
2024/01/31 03:07:40;;;;;;;9.90;7.07;;;8.60;99.90;;;;;;5029958;28;20197;-68
2024/01/31 03:10:07;;;;;;;8.90;6.50;;;8.60;99.90;;;;;;5034353;28;20239;-71
2024/01/31 03:12:32;;;;;;;11.30;6.90;;;8.60;99.90;;;;;;5034621;28;20503;-69
2024/01/31 03:14:58;;;;;;;10.47;6.50;;;8.60;99.90;;;;;;5034175;28;20433;-69
2024/01/31 03:17:24;;;;;;;9.67;6.80;;;8.60;99.90;;;;;;5034122;28;20186;-68
2024/01/31 03:19:49;;;;;;;11.80;6.33;;;8.60;99.90;;;;;;5033432;28;20279;-70
2024/01/31 03:22:15;;;;;;;11.57;6.30;;;8.60;99.90;;;;;;5035095;28;20333;-69
2024/01/31 03:24:41;;;;;;;12.87;6.83;;;8.60;99.90;;;;;;5033437;28;20830;-69
2024/01/31 03:27:07;;;;;;;11.50;6.43;;;8.60;99.90;;;;;;5032870;28;20182;-70
2024/01/31 03:29:33;;;;;;;9.07;6.67;;;8.60;99.90;;;;;;5034390;28;20186;-67
2024/01/31 03:31:58;;;;;;;9.90;6.27;;;8.60;99.90;;;;;;5033019;28;20250;-71
2024/01/31 03:34:24;;;;;;;9.23;6.20;;;8.60;99.90;;;;;;5033807;28;20523;-67
2024/01/31 03:36:50;;;;;;;11.20;7.07;;;8.60;99.90;;;;;;5032895;28;20776;-69
2024/01/31 03:39:15;;;;;;;10.53;7.13;;;8.60;99.90;;;;;;5034589;28;20181;-69
2024/01/31 03:41:45;;;;;;;10.40;6.20;;;8.60;99.90;;;;;;5032716;28;20195;-69
2024/01/31 03:44:10;;;;;;;9.97;6.90;;;8.60;99.90;;;;;;5032065;28;21216;-69
2024/01/31 03:46:36;;;;;;;10.37;7.33;;;8.50;99.90;;;;;;5032801;28;20464;-66
2024/01/31 03:49:02;;;;;;;10.20;6.80;;;8.60;99.90;;;;;;5033321;28;20237;-67
2024/01/31 03:51:27;;;;;;;11.30;7.00;;;8.50;99.90;;;;;;5033988;28;20214;-67
2024/01/31 03:53:53;;;;;;;9.70;6.00;;;8.50;99.90;;;;;;5033405;28;20193;-70
2024/01/31 03:56:19;;;;;;;11.30;6.00;;;8.50;99.90;;;;;;5032337;28;20215;-70
2024/01/31 03:58:45;;;;;;;10.03;6.63;;;8.50;99.90;;;;;;5032982;28;20186;-69
2024/01/31 04:01:15;;;;;;;8.53;5.07;;;8.50;99.90;;;;;;5034013;28;20181;-68
2024/01/31 04:03:43;;;;;;;8.57;5.50;;;8.50;99.90;;;;;;5032874;28;20193;-69
2024/01/31 04:06:10;;;;;;;6.73;5.03;;;8.50;99.90;;;;;;5032508;28;20416;-71
2024/01/31 04:08:35;;;;;;;10.73;6.20;;;8.50;99.90;;;;;;5033865;28;20478;-69
2024/01/31 04:11:02;;;;;;;7.80;4.77;;;8.50;99.90;;;;;;5031472;28;21090;-69
2024/01/31 04:13:28;;;;;;;6.80;4.30;;;8.50;99.90;;;;;;5033665;28;20218;-70
2024/01/31 04:15:55;;;;;;;6.37;4.20;;;8.50;99.90;;;;;;5032460;28;20877;-69
2024/01/31 04:18:20;;;;;;;6.60;3.60;;;8.50;99.90;;;;;;5033815;28;20464;-70
2024/01/31 04:20:46;;;;;;;4.77;2.90;;;8.50;99.90;;;;;;5031646;28;20792;-71
2024/01/31 04:23:12;;;;;;;10.50;4.37;;;8.50;99.90;;;;;;5032259;28;20964;-67
2024/01/31 04:25:38;;;;;;;10.33;4.90;;;8.40;99.90;;;;;;5032986;28;20221;-66
2024/01/31 04:28:04;;;;;;;7.50;5.80;;;8.40;99.90;;;;;;5032985;28;20225;-68
2024/01/31 04:30:29;;;;;;;8.03;5.80;;;8.40;99.90;;;;;;5033162;28;20273;-66
2024/01/31 04:32:58;;;;;;;10.90;6.17;;;8.40;99.90;;;;;;5031981;28;20550;-67
2024/01/31 04:35:24;;;;;;;8.50;5.70;;;8.40;99.90;;;;;;5032879;28;20198;-66
2024/01/31 04:37:50;;;;;;;11.10;5.80;;;8.40;99.90;;;;;;5032748;28;20603;-66
2024/01/31 04:40:16;;;;;;;13.60;6.30;;;8.40;99.90;;;;;;5032793;28;20897;-68
2024/01/31 04:42:41;;;;;;;9.57;6.20;;;8.40;99.90;;;;;;5031588;28;20193;-68
2024/01/31 04:45:08;;;;;;;10.33;5.00;;;8.40;99.90;;;;;;5032486;28;20185;-70
2024/01/31 04:47:34;;;;;;;9.60;5.40;;;8.30;99.90;;;;;;5034940;28;20211;-70
2024/01/31 04:49:59;;;;;;;9.57;5.57;;;8.30;99.90;;;;;;5034809;28;20425;-69
2024/01/31 04:52:25;;;;;;;9.70;6.17;;;8.30;99.90;;;;;;5036931;28;20209;-68
2024/01/31 04:54:51;;;;;;;8.07;4.93;;;8.30;99.90;;;;;;5036418;28;20314;-70
2024/01/31 04:57:17;;;;;;;8.73;5.90;;;8.30;99.90;;;;;;5036045;28;20779;-68
2024/01/31 04:59:43;;;;;;;6.87;4.43;;;8.30;99.90;;;;;;5036058;28;20671;-67
2024/01/31 05:02:09;;;;;;;8.63;5.40;;;8.30;99.90;;;;;;5036913;28;20557;-71
2024/01/31 05:04:39;;;;;;;6.60;5.03;;;8.30;99.90;;;;;;5036693;28;20252;-68
2024/01/31 05:07:05;;;;;;;6.50;4.53;;;8.30;99.90;;;;;;5035968;28;20745;-66
2024/01/31 05:09:31;;;;;;;5.90;4.40;;;8.30;99.90;;;;;;5036635;28;20423;-66
2024/01/31 05:11:56;;;;;;;6.03;4.40;;;8.30;99.90;;;;;;5035546;28;20210;-69
2024/01/31 05:14:23;;;;;;;8.03;4.73;;;8.20;99.90;;;;;;5035462;28;20189;-69
2024/01/31 05:16:49;;;;;;;7.37;4.90;;;8.30;99.90;;;;;;5034367;28;20816;-68
2024/01/31 05:19:15;;;;;;;6.43;5.10;;;8.30;99.90;;;;;;5036616;28;20433;-68
2024/01/31 05:21:48;;;;;;;6.07;3.83;;;8.30;99.90;;;;;;5033884;28;20425;-69
2024/01/31 05:24:14;;;;;;;7.40;5.10;;;8.30;99.90;;;;;;5035591;28;20468;-66
2024/01/31 05:26:42;;;;;;;7.00;4.17;;;8.20;99.90;;;;;;5035281;28;20499;-68
2024/01/31 05:29:08;;;;;;;4.40;3.90;;;8.20;99.90;;;;;;5035858;28;20425;-69
2024/01/31 05:31:33;;;;;;;5.97;3.73;;;8.20;99.90;;;;;;5035211;28;20524;-71
2024/01/31 05:33:59;;;;;;;3.90;2.73;;;8.20;99.90;;;;;;5035636;28;20263;-67
2024/01/31 05:36:25;;;;;;;5.23;4.20;;;8.20;99.90;;;;;;5035782;28;20205;-68
2024/01/31 05:38:50;;;;;;;8.03;3.27;;;8.20;99.90;;;;;;5034974;28;20216;-69
2024/01/31 05:41:16;;;;;;;6.73;3.73;;;8.20;99.90;;;;;;5035698;28;20219;-69
2024/01/31 05:43:42;;;;;;;7.17;3.60;;;8.10;99.90;;;;;;5035430;28;20185;-69
2024/01/31 05:46:08;;;;;;;4.43;3.43;;;8.10;99.90;;;;;;5035670;28;20663;-70
2024/01/31 05:48:33;;;;;;;4.57;3.20;;;8.10;99.90;;;;;;5035333;28;20769;-69
2024/01/31 05:50:59;;;;;;;6.27;2.97;;;8.10;99.90;;;;;;5033697;28;20441;-68
2024/01/31 05:53:25;;;;;;;5.53;3.63;;;8.10;99.90;;;;;;5033645;28;20182;-67
2024/01/31 05:55:50;;;;;;;6.93;4.10;;;8.10;99.90;;;;;;5030993;28;20185;-67
2024/01/31 05:58:19;;;;;;;4.53;3.50;;;8.10;99.90;;;;;;5032288;28;20683;-69
2024/01/31 06:00:46;;;;;;;4.70;3.73;;;8.10;99.90;;;;;;5033168;28;20194;-66
2024/01/31 06:03:12;;;;;;;4.60;3.67;;;8.10;99.90;;;;;;5035082;28;20447;-70
2024/01/31 06:05:38;;;;;;;5.40;3.70;;;8.10;99.90;;;;;;5034728;28;20436;-69
2024/01/31 06:08:04;;;;;;;4.57;3.97;;;8.10;99.90;;;;;;5035817;28;20192;-69
2024/01/31 06:10:29;;;;;;;4.57;3.13;;;8.10;99.90;;;;;;5035590;28;20202;-68
2024/01/31 06:12:55;;;;;;;3.67;3.03;;;8.00;99.90;;;;;;5035530;28;20534;-69
2024/01/31 06:15:21;;;;;;;4.40;3.17;;;8.10;99.90;;;;;;5033647;28;20855;-67
2024/01/31 06:17:46;;;;;;;3.57;3.20;;;8.00;99.90;;;;;;5035299;28;20197;-71
2024/01/31 06:20:12;;;;;;;6.00;3.60;;;8.00;99.90;;;;;;5035343;28;20173;-67
2024/01/31 06:22:38;;;;;;;4.00;3.10;;;8.00;99.90;;;;;;5034002;28;20188;-69
2024/01/31 06:25:04;;;;;;;5.97;3.00;;;8.00;99.90;;;;;;5034534;28;20425;-70
2024/01/31 06:27:30;;;;;;;3.80;2.93;;;8.00;99.90;;;;;;5034830;28;20207;-70
2024/01/31 06:29:56;;;;;;;2.40;2.20;;;8.00;99.90;;;;;;5035676;28;20814;-68
2024/01/31 06:32:30;;;;;;;5.30;2.70;;;8.00;99.90;;;;;;5035374;28;20483;-69
2024/01/31 06:34:56;;;;;;;5.03;3.27;;;8.00;99.90;;;;;;5033859;28;20186;-71
2024/01/31 06:37:21;;;;;;;3.60;2.43;;;8.00;99.90;;;;;;5032370;28;20809;-69
2024/01/31 06:39:47;;;;;;;4.13;2.90;;;8.00;99.90;;;;;;5033584;28;20182;-70
2024/01/31 06:42:13;;;;;;;6.93;3.60;;;8.00;99.90;;;;;;5034051;28;20189;-69
2024/01/31 06:44:38;;;;;;;2.80;2.50;;;8.00;99.90;;;;;;5032616;28;20229;-68
2024/01/31 06:47:05;;;;;;;4.40;3.13;;;8.00;99.90;;;;;;5031572;28;20255;-69
2024/01/31 06:49:31;;;;;;;3.87;2.57;;;8.00;99.90;;;;;;5035185;28;20186;-69
2024/01/31 06:51:57;;;;;;;3.57;2.70;;;7.90;99.90;;;;;;5034173;28;20476;-71
2024/01/31 06:54:22;;;;;;;4.00;3.20;;;7.90;99.90;;;;;;5034215;28;20432;-69
2024/01/31 06:56:48;;;;;;;8.20;3.90;;;7.90;99.90;;;;;;5033769;28;20186;-69
2024/01/31 06:59:14;;;;;;;4.40;3.13;;;7.90;99.90;;;;;;5034387;28;20320;-67
2024/01/31 07:01:39;;;;;;;5.37;3.00;;;7.90;99.90;;;;;;5030401;28;20186;-67
2024/01/31 07:04:05;;;;;;;3.87;2.90;;;7.90;99.90;;;;;;5031626;28;20190;-66
2024/01/31 07:06:31;;;;;;;3.93;2.90;;;7.90;99.90;;;;;;5033240;28;20190;-69
2024/01/31 07:08:56;;;;;;;4.87;3.50;;;8.00;99.90;;;;;;5033362;28;20178;-70
2024/01/31 07:11:22;;;;;;;5.73;4.00;;;7.90;99.90;;;;;;5032683;28;20249;-67
2024/01/31 07:13:48;;;;;;;4.53;3.10;;;7.90;99.90;;;;;;5033933;28;20189;-67
2024/01/31 07:16:14;;;;;;;5.93;4.10;;;7.90;99.90;;;;;;5032186;28;20872;-68
2024/01/31 07:18:41;;;;;;;4.70;3.67;;;7.90;99.90;;;;;;5030739;28;20229;-67
2024/01/31 07:21:08;;;;;;;5.20;3.90;;;7.90;99.90;;;;;;5030827;28;20539;-68
2024/01/31 07:23:35;;;;;;;5.80;4.00;;;7.90;99.90;;;;;;5032707;28;20436;-68
2024/01/31 07:26:00;;;;;;;5.20;4.20;;;7.90;99.90;;;;;;5033939;28;20497;-66
2024/01/31 07:28:26;;;;;;;7.67;4.87;;;7.90;99.90;;;;;;5034564;28;20944;-69
2024/01/31 07:30:52;;;;;;;6.70;4.80;;;7.90;99.90;;;;;;5033216;28;20218;-68
2024/01/31 07:33:19;;;;;;;5.43;4.60;;;7.90;99.90;;;;;;5034873;28;20231;-73
2024/01/31 07:35:45;;;;;;;5.07;4.43;;;7.90;99.90;;;;;;5033048;28;20292;-68
2024/01/31 07:38:11;;;;;;;6.90;5.80;;;7.90;99.90;;;;;;5035061;28;20888;-65
2024/01/31 07:40:37;;;;;;;9.63;6.20;;;7.90;99.90;;;;;;5033397;28;20186;-67
2024/01/31 07:43:03;;;;;;;12.23;7.70;;;7.90;99.90;;;;;;5032536;28;20193;-70
2024/01/31 07:45:29;;;;;;;9.20;6.77;;;7.90;99.90;;;;;;5033119;28;20448;-67
2024/01/31 07:47:56;;;;;;;7.40;5.87;;;7.90;99.90;;;;;;5033557;28;20454;-72
2024/01/31 07:50:22;;;;;;;9.77;6.93;;;7.90;99.90;;;;;;5031972;28;20425;-67
2024/01/31 07:52:49;;;;;;;7.03;5.67;;;7.80;99.90;;;;;;5033834;28;20495;-69
2024/01/31 07:55:14;;;;;;;9.07;7.63;;;7.80;99.90;;;;;;5031605;28;20436;-69
2024/01/31 07:57:40;;;;;;;9.67;6.57;;;7.80;99.90;;;;;;5003405;28;20425;-71
2024/01/31 08:00:07;;;;;;;12.23;7.87;;;7.80;99.90;;;;;;5032872;28;20174;-71
2024/01/31 08:02:33;;;;;;;13.90;9.27;;;7.80;99.90;;;;;;5030060;28;20194;-70
2024/01/31 08:04:59;;;;;;;13.87;9.80;;;7.80;99.90;;;;;;5012292;28;20476;-68
2024/01/31 08:07:25;;;;;;;13.53;9.37;;;7.90;99.90;;;;;;5030763;28;20483;-67
2024/01/31 08:09:50;;;;;;;15.10;10.33;;;7.90;99.90;;;;;;5032292;28;20204;-72
2024/01/31 08:12:17;;;;;;;14.67;10.00;;;7.90;99.90;;;;;;5031898;28;20205;-70
2024/01/31 08:14:42;;;;;;;13.27;9.30;;;7.90;99.90;;;;;;5031740;28;20190;-70
2024/01/31 08:17:08;;;;;;;13.13;9.03;;;7.90;99.90;;;;;;5031847;28;20957;-68
2024/01/31 08:19:34;;;;;;;12.30;8.97;;;7.90;99.90;;;;;;5032770;28;20305;-72
2024/01/31 08:22:01;;;;;;;13.67;8.73;;;8.00;99.90;;;;;;5025471;28;20212;-67
2024/01/31 08:24:26;;;;;;;13.53;8.63;;;7.90;99.90;;;;;;5032388;28;20469;-68
2024/01/31 08:26:52;;;;;;;12.70;8.70;;;8.00;99.90;;;;;;5033802;28;20806;-70
2024/01/31 08:29:18;;;;;;;13.73;8.83;;;8.00;99.90;;;;;;5031872;28;20182;-70
2024/01/31 08:31:44;;;;;;;10.43;8.13;;;7.90;99.90;;;;;;5032685;28;20218;-71
2024/01/31 08:34:11;;;;;;;14.77;8.27;;;8.00;99.90;;;;;;5031980;28;20905;-70
2024/01/31 08:36:36;;;;;;;9.40;7.03;;;8.00;99.90;;;;;;5031723;28;20185;-71
2024/01/31 08:39:03;;;;;;;12.83;6.80;;;8.00;99.90;;;;;;5032022;28;20445;-71
2024/01/31 08:41:28;;;;;;;10.73;7.47;;;8.00;99.90;;;;;;5032704;28;20189;-67
2024/01/31 08:43:54;;;;;;;15.70;7.87;;;8.00;99.90;;;;;;5031648;28;20498;-71
2024/01/31 08:46:20;;;;;;;12.57;7.83;;;8.00;99.90;;;;;;5030901;28;21000;-71
2024/01/31 08:48:46;;;;;;;15.07;7.43;;;8.00;99.90;;;;;;5031297;28;20568;-69
2024/01/31 08:51:14;;;;;;;11.20;7.77;;;8.00;99.90;;;;;;5031893;28;20686;-71
2024/01/31 08:53:42;;;;;;;10.50;7.63;;;8.00;99.90;;;;;;5032413;28;20432;-69
2024/01/31 08:56:09;;;;;;;10.90;7.60;;;8.00;99.90;;;;;;5029994;28;20424;-71
2024/01/31 08:58:35;;;;;;;13.17;8.73;;;8.00;99.90;;;;;;5031966;28;20432;-71
2024/01/31 09:01:00;;;;;;;13.60;9.00;;;8.00;99.90;;;;;;5013583;28;20431;-67
2024/01/31 09:03:26;;;;;;;13.00;8.57;;;8.00;99.90;;;;;;5034126;28;20218;-67
2024/01/31 09:05:53;;;;;;;14.40;8.63;;;8.10;99.90;;;;;;5033794;28;20240;-65
2024/01/31 09:08:20;;;;;;;13.37;8.93;;;8.00;99.90;;;;;;5033272;28;20428;-67
2024/01/31 09:10:45;;;;;;;14.27;9.60;;;8.10;99.90;;;;;;5032711;28;20429;-67
2024/01/31 09:13:11;;;;;;;14.37;9.07;;;8.10;99.90;;;;;;5033022;28;20522;-70
2024/01/31 09:15:37;;;;;;;15.33;8.80;;;8.10;99.90;;;;;;5033704;28;20245;-71
2024/01/31 09:18:03;;;;;;;12.20;8.40;;;8.10;99.90;;;;;;5032824;28;20727;-69
2024/01/31 09:20:30;;;;;;;13.97;8.73;;;8.10;99.90;;;;;;5033281;28;20928;-67
2024/01/31 09:22:56;;;;;;;10.90;8.60;;;8.10;99.90;;;;;;5032313;28;21038;-70
2024/01/31 09:25:21;;;;;;;12.63;9.40;;;8.10;99.90;;;;;;5032521;28;20480;-69
2024/01/31 09:27:47;;;;;;;11.77;8.70;;;8.10;99.90;;;;;;5033154;28;20186;-70
2024/01/31 09:30:13;;;;;;;12.43;8.17;;;8.10;99.90;;;;;;5032734;28;20197;-72
2024/01/31 09:32:39;;;;;;;10.07;7.67;;;8.10;99.90;;;;;;5033798;28;20469;-69
2024/01/31 09:35:06;;;;;;;10.23;7.73;;;8.10;99.90;;;;;;5036973;28;20425;-71
2024/01/31 09:37:32;;;;;;;12.20;7.90;;;8.20;99.90;;;;;;5035783;28;20611;-68
2024/01/31 09:39:59;;;;;;;12.50;8.30;;;8.20;99.90;;;;;;5036239;28;20520;-69
2024/01/31 09:42:26;;;;;;;10.60;6.47;;;8.20;99.90;;;;;;5035842;28;20478;-69
2024/01/31 09:44:55;;;;;;;10.30;7.17;;;8.20;99.90;;;;;;5036670;28;20432;-73
2024/01/31 09:47:26;;;;;;;12.53;7.67;;;8.20;99.90;;;;;;5034293;28;20465;-72
2024/01/31 09:49:51;;;;;;;7.77;6.67;;;8.20;99.90;;;;;;5036163;28;20821;-70
2024/01/31 09:52:24;;;;;;;10.33;6.53;;;8.20;99.90;;;;;;5036008;28;20455;-68
2024/01/31 09:54:51;;;;;;;10.07;6.90;;;8.20;99.90;;;;;;5036590;28;20555;-70
2024/01/31 09:57:17;;;;;;;12.40;7.30;;;8.20;99.90;;;;;;5034948;28;20420;-69
2024/01/31 09:59:44;;;;;;;10.17;7.93;;;8.20;99.90;;;;;;5036540;28;20481;-71
2024/01/31 10:02:10;;;;;;;12.33;8.10;;;8.30;99.90;;;;;;5034910;28;20968;-66
2024/01/31 10:04:35;;;;;;;12.53;8.37;;;8.30;99.90;;;;;;5036990;28;20424;-72
2024/01/31 10:07:01;;;;;;;11.30;8.57;;;8.30;99.90;;;;;;5034142;28;20213;-70
2024/01/31 10:09:27;;;;;;;12.87;8.07;;;8.30;99.90;;;;;;5036601;28;20241;-68
2024/01/31 10:11:52;;;;;;;12.20;8.40;;;8.30;99.90;;;;;;5035355;28;20271;-72
2024/01/31 10:14:18;;;;;;;15.20;9.87;;;8.30;99.90;;;;;;5035825;28;20170;-68
2024/01/31 10:16:43;;;;;;;11.70;9.07;;;8.30;99.90;;;;;;5035805;28;20193;-70
2024/01/31 10:19:09;;;;;;;13.90;9.50;;;8.20;99.90;;;;;;5035419;28;20199;-68
2024/01/31 10:21:35;;;;;;;11.90;8.83;;;8.20;99.90;;;;;;5035837;28;20201;-71
2024/01/31 10:24:04;;;;;;;14.30;8.93;;;8.30;99.90;;;;;;5034057;28;20186;-72
2024/01/31 10:26:33;;;;;;;13.23;8.90;;;8.30;99.90;;;;;;5035470;28;20520;-68
2024/01/31 10:29:00;;;;;;;12.47;9.20;;;8.30;99.90;;;;;;5034547;28;20441;-68
2024/01/31 10:31:28;;;;;;;13.30;9.30;;;8.30;99.90;;;;;;5035387;28;20492;-72
2024/01/31 10:33:55;;;;;;;19.07;8.80;;;8.30;99.90;;;;;;5034918;28;20435;-69
2024/01/31 10:36:21;;;;;;;14.53;9.23;;;8.30;99.90;;;;;;5035441;28;20799;-67
2024/01/31 10:38:47;;;;;;;14.47;8.43;;;8.30;99.90;;;;;;5034537;28;20567;-71
2024/01/31 10:41:15;;;;;;;13.63;8.67;;;8.30;99.90;;;;;;5034691;28;20521;-70
2024/01/31 10:43:43;;;;;;;14.73;9.30;;;8.30;99.90;;;;;;5034935;28;20460;-68
2024/01/31 10:46:08;;;;;;;13.80;8.83;;;8.30;99.90;;;;;;5033721;28;20577;-69
2024/01/31 10:48:34;;;;;;;13.83;9.43;;;8.40;99.90;;;;;;5035212;28;20585;-72
2024/01/31 10:51:01;;;;;;;13.97;8.93;;;8.30;99.90;;;;;;5034541;28;20304;-74
2024/01/31 10:53:29;;;;;;;17.80;9.63;;;8.40;99.90;;;;;;5034543;28;20217;-68
2024/01/31 10:55:56;;;;;;;13.17;8.70;;;8.30;99.90;;;;;;5034335;28;20420;-64
2024/01/31 10:58:22;;;;;;;16.13;9.10;;;8.40;99.90;;;;;;5034661;28;20420;-70
2024/01/31 11:00:48;;;;;;;12.17;8.00;;;8.40;99.90;;;;;;5033595;28;20516;-64
2024/01/31 11:03:16;;;;;;;15.43;10.37;;;8.30;99.90;;;;;;5034711;28;20537;-66
2024/01/31 11:05:42;;;;;;;16.47;10.30;;;8.30;99.90;;;;;;5034664;28;21021;-68
2024/01/31 11:08:21;;;;;;;14.67;9.23;;;8.30;99.90;;;;;;5033922;28;20435;-71
2024/01/31 11:10:47;;;;;;;16.43;9.67;;;8.30;99.90;;;;;;5034672;28;20432;-72
2024/01/31 11:13:13;;;;;;;15.10;9.50;;;8.20;99.90;;;;;;5032903;28;21230;-68
2024/01/31 11:15:40;;;;;;;16.43;10.70;;;8.20;99.90;;;;;;5034358;28;21045;-67
2024/01/31 11:18:06;;;;;;;17.13;9.43;;;8.30;99.90;;;;;;5032444;28;20461;-70
2024/01/31 11:20:36;;;;;;;17.67;9.90;;;8.30;99.90;;;;;;5033548;28;20992;-69
2024/01/31 11:23:03;;;;;;;13.97;9.83;;;8.40;99.90;;;;;;5033609;28;21021;-71
2024/01/31 11:25:36;;;;;;;17.30;10.00;;;8.40;99.90;;;;;;5034114;28;20505;-67
2024/01/31 11:28:06;;;;;;;15.40;10.47;;;8.50;99.90;;;;;;5032522;28;20494;-70
2024/01/31 11:30:32;;;;;;;17.17;9.30;;;8.40;99.90;;;;;;5034194;28;20448;-71
2024/01/31 11:33:01;;;;;;;15.03;9.63;;;8.50;99.90;;;;;;5032826;28;20469;-67
2024/01/31 11:35:28;;;;;;;14.60;9.50;;;8.50;99.90;;;;;;5034319;28;20428;-70
2024/01/31 11:37:58;;;;;;;12.97;7.87;;;8.50;99.90;;;;;;5033019;28;21209;-68
2024/01/31 11:40:24;;;;;;;16.13;10.30;;;8.50;99.90;;;;;;5033974;28;20435;-70
2024/01/31 11:42:54;;;;;;;14.40;8.90;;;8.60;99.90;;;;;;5033396;28;20469;-67
2024/01/31 11:45:25;;;;;;;15.53;9.03;;;8.60;99.90;;;;;;5033500;28;20436;-67
2024/01/31 11:47:53;;;;;;;13.60;8.67;;;8.60;99.90;;;;;;5033041;28;20448;-68
2024/01/31 11:50:20;;;;;;;14.20;9.10;;;8.60;99.90;;;;;;5033689;28;20818;-70
2024/01/31 11:52:46;;;;;;;13.60;8.83;;;8.60;99.90;;;;;;5033531;28;20819;-67
2024/01/31 11:55:12;;;;;;;15.07;8.73;;;8.60;99.90;;;;;;5033482;28;20451;-66
2024/01/31 11:57:38;;;;;;;14.77;9.33;;;8.60;99.90;;;;;;5033014;28;20429;-67
2024/01/31 12:00:05;;;;;;;16.03;9.60;;;8.60;99.90;;;;;;5032865;28;20189;-68
2024/01/31 12:02:35;;;;;;;13.57;8.50;;;8.70;99.90;;;;;;5033677;28;20456;-72
2024/01/31 12:05:01;;;;;;;16.47;9.80;;;8.70;99.90;;;;;;5032648;28;20830;-65
2024/01/31 12:07:28;;;;;;;14.43;9.47;;;8.70;99.90;;;;;;5033638;28;20435;-70
2024/01/31 12:09:53;;;;;;;14.43;9.40;;;8.70;99.90;;;;;;5032289;28;20693;-67
2024/01/31 12:12:19;;;;;;;13.13;9.03;;;8.70;99.90;;;;;;5033371;28;20521;-68
2024/01/31 12:14:45;;;;;;;16.37;9.60;;;8.70;99.90;;;;;;5033575;28;20189;-70
2024/01/31 12:17:24;;;;;;;15.50;9.30;;;8.70;99.90;;;;;;5032620;28;20260;-67
2024/01/31 12:20:05;;;;;;;15.90;10.63;;;8.70;99.90;;;;;;5032242;28;20451;-66
2024/01/31 12:22:34;;;;;;;13.60;8.97;;;8.70;99.90;;;;;;5032972;28;20763;-73
2024/01/31 12:25:04;;;;;;;15.73;10.50;;;8.70;99.90;;;;;;5032408;28;20433;-68
2024/01/31 12:27:30;;;;;;;16.20;10.40;;;8.80;99.90;;;;;;5032397;28;20428;-70
2024/01/31 12:29:57;;;;;;;16.50;11.00;;;8.80;99.90;;;;;;5032600;28;20954;-69
2024/01/31 12:32:23;;;;;;;20.80;10.90;;;8.80;99.90;;;;;;5025767;28;20859;-73
2024/01/31 12:34:49;;;;;;;17.40;10.27;;;8.80;99.90;;;;;;5030900;28;20445;-68
2024/01/31 12:37:15;;;;;;;19.63;11.10;;;8.80;99.90;;;;;;5030645;28;20557;-68
2024/01/31 12:39:42;;;;;;;18.03;11.00;;;8.80;99.90;;;;;;5032894;28;20666;-69
2024/01/31 12:42:08;;;;;;;15.80;11.17;;;8.80;99.90;;;;;;5032650;28;20533;-71
2024/01/31 12:44:33;;;;;;;14.37;9.57;;;8.90;99.90;;;;;;5032026;28;20535;-71